This is the latest recevied weather packets stored in our database for station/object K1NOT-WX. If no packets are shown the sender has not sent any weather packets the latest 10 day(s).
| Time | Temp. | Humidity | Pressure | Rain* | Wind** | Luminosity | Snow |
|---|---|---|---|---|---|---|---|
| 1777477332 | 12.78° C | 71% | 1016.6 hPa | 0 mm | - | - | - |
| 1777476432 | 12.22° C | 72% | 1016.6 hPa | 0 mm | - | - | - |
| 1777475532 | 11.67° C | 75% | 1017.3 hPa | 0 mm | - | - | - |
| 1777474632 | 11.11° C | 79% | 1016.9 hPa | 0 mm | - | - | - |
| 1777473732 | 10.56° C | 81% | 1016.9 hPa | 0 mm | - | - | - |
| 1777472832 | 11.11° C | 78% | 1016.9 hPa | 0 mm | - | - | - |
| 1777471932 | 10° C | 82% | 1016.6 hPa | 0 mm | - | - | - |
| 1777471032 | 8.33° C | 93% | 1016.6 hPa | 0 mm | - | - | - |
| 1777470132 | 7.78° C | 93% | 1016.6 hPa | 0 mm | - | - | - |
| 1777469232 | 7.22° C | 93% | 1016.3 hPa | 0 mm | - | - | - |
| 1777468332 | 6.67° C | 93% | 1016.3 hPa | 0 mm | - | - | - |
| 1777467432 | 6.67° C | 92% | 1016.3 hPa | 0 mm | - | - | - |
| 1777466532 | 7.22° C | 91% | 1016.3 hPa | 0 mm | - | - | - |
| 1777465632 | 7.78° C | 90% | 1016.3 hPa | 0 mm | - | - | - |
| 1777464732 | 7.78° C | 89% | 1015.9 hPa | 0 mm | - | - | - |
| 1777463832 | 8.33° C | 89% | 1015.9 hPa | 0 mm | - | - | - |
| 1777462932 | 7.78° C | 90% | 1016.3 hPa | 0 mm | - | - | - |
| 1777462032 | 7.78° C | 90% | 1016.3 hPa | 0 mm | - | - | - |
| 1777461132 | 7.78° C | 89% | 1015.9 hPa | 0 mm | - | - | - |
| 1777460232 | 8.33° C | 88% | 1015.9 hPa | 0 mm | - | - | - |
| 1777459332 | 8.89° C | 87% | 1015.9 hPa | 0 mm | - | - | - |
| 1777458432 | 8.89° C | 86% | 1015.9 hPa | 0 mm | - | - | - |
| 1777457532 | 8.89° C | 86% | 1015.9 hPa | 0 mm | - | - | - |
| 1777456632 | 8.89° C | 87% | 1016.3 hPa | 0 mm | - | - | - |
| 1777455733 | 8.89° C | 86% | 1015.9 hPa | 0 mm | - | - | - |
* Rain latest hour (hover to see other rain measurements)
** Current wind speed in m/s (hover to see current wind gust speed)